sensor_id;sensor_type;location;lat;lon;timestamp;P1;durP1;ratioP1;P2;durP2;ratioP2
58260;SDS011;44058;52.898;6.502;2024-02-14T00:01:00;11.18;;;6.55;;
58260;SDS011;44058;52.898;6.502;2024-02-14T00:03:27;7.03;;;6.32;;
58260;SDS011;44058;52.898;6.502;2024-02-14T00:05:54;9.98;;;6.22;;
58260;SDS011;44058;52.898;6.502;2024-02-14T00:08:21;7.75;;;6.45;;
58260;SDS011;44058;52.898;6.502;2024-02-14T00:10:48;12.48;;;7.07;;
58260;SDS011;44058;52.898;6.502;2024-02-14T00:13:15;7.32;;;6.30;;
58260;SDS011;44058;52.898;6.502;2024-02-14T00:15:44;7.57;;;6.78;;
58260;SDS011;44058;52.898;6.502;2024-02-14T00:18:12;8.90;;;6.50;;
58260;SDS011;44058;52.898;6.502;2024-02-14T00:20:39;9.50;;;7.00;;
58260;SDS011;44058;52.898;6.502;2024-02-14T00:23:06;9.55;;;6.55;;
58260;SDS011;44058;52.898;6.502;2024-02-14T00:25:33;11.18;;;7.45;;
58260;SDS011;44058;52.898;6.502;2024-02-14T00:28:00;11.35;;;7.05;;
58260;SDS011;44058;52.898;6.502;2024-02-14T00:30:27;8.48;;;7.00;;
58260;SDS011;44058;52.898;6.502;2024-02-14T00:32:54;7.43;;;6.55;;
58260;SDS011;44058;52.898;6.502;2024-02-14T00:35:21;8.65;;;6.15;;
58260;SDS011;44058;52.898;6.502;2024-02-14T00:37:48;11.18;;;7.18;;
58260;SDS011;44058;52.898;6.502;2024-02-14T00:40:15;9.68;;;7.03;;
58260;SDS011;44058;52.898;6.502;2024-02-14T00:42:42;11.35;;;6.72;;
58260;SDS011;44058;52.898;6.502;2024-02-14T00:45:09;7.72;;;6.70;;
58260;SDS011;44058;52.898;6.502;2024-02-14T00:47:36;9.63;;;6.65;;
58260;SDS011;44058;52.898;6.502;2024-02-14T00:50:03;7.43;;;6.63;;
58260;SDS011;44058;52.898;6.502;2024-02-14T00:52:30;9.25;;;7.30;;
58260;SDS011;44058;52.898;6.502;2024-02-14T00:54:57;7.38;;;6.45;;
58260;SDS011;44058;52.898;6.502;2024-02-14T00:57:24;7.05;;;6.30;;
58260;SDS011;44058;52.898;6.502;2024-02-14T00:59:52;6.60;;;6.00;;
58260;SDS011;44058;52.898;6.502;2024-02-14T01:02:19;6.93;;;6.03;;
58260;SDS011;44058;52.898;6.502;2024-02-14T01:04:47;6.43;;;5.68;;
58260;SDS011;44058;52.898;6.502;2024-02-14T01:07:14;7.70;;;5.88;;
58260;SDS011;44058;52.898;6.502;2024-02-14T01:09:41;9.18;;;6.07;;
58260;SDS011;44058;52.898;6.502;2024-02-14T01:12:08;8.43;;;6.28;;
58260;SDS011;44058;52.898;6.502;2024-02-14T01:14:35;6.60;;;5.93;;
58260;SDS011;44058;52.898;6.502;2024-02-14T01:17:02;6.82;;;6.10;;
58260;SDS011;44058;52.898;6.502;2024-02-14T01:19:29;6.72;;;5.80;;
58260;SDS011;44058;52.898;6.502;2024-02-14T01:21:56;6.07;;;5.47;;
58260;SDS011;44058;52.898;6.502;2024-02-14T01:24:23;6.35;;;5.45;;
58260;SDS011;44058;52.898;6.502;2024-02-14T01:29:21;6.95;;;5.28;;
58260;SDS011;44058;52.898;6.502;2024-02-14T01:31:49;5.75;;;5.15;;
58260;SDS011;44058;52.898;6.502;2024-02-14T01:34:16;6.57;;;5.10;;
58260;SDS011;44058;52.898;6.502;2024-02-14T01:36:43;4.95;;;4.53;;
58260;SDS011;44058;52.898;6.502;2024-02-14T01:39:10;6.03;;;5.43;;
58260;SDS011;44058;52.898;6.502;2024-02-14T01:41:37;5.53;;;5.03;;
58260;SDS011;44058;52.898;6.502;2024-02-14T01:44:04;5.68;;;5.07;;
58260;SDS011;44058;52.898;6.502;2024-02-14T01:46:32;6.88;;;5.30;;
58260;SDS011;44058;52.898;6.502;2024-02-14T01:48:59;5.47;;;4.72;;
58260;SDS011;44058;52.898;6.502;2024-02-14T01:51:26;5.38;;;4.85;;
58260;SDS011;44058;52.898;6.502;2024-02-14T01:53:53;6.93;;;4.88;;
58260;SDS011;44058;52.898;6.502;2024-02-14T01:56:21;6.70;;;4.90;;
58260;SDS011;44058;52.898;6.502;2024-02-14T01:58:48;5.53;;;4.95;;
58260;SDS011;44058;52.898;6.502;2024-02-14T02:01:15;6.68;;;4.88;;
58260;SDS011;44058;52.898;6.502;2024-02-14T02:03:43;7.20;;;5.57;;
58260;SDS011;44058;52.898;6.502;2024-02-14T02:06:11;5.43;;;4.53;;
58260;SDS011;44058;52.898;6.502;2024-02-14T02:08:38;4.90;;;4.40;;
58260;SDS011;44058;52.898;6.502;2024-02-14T02:11:05;4.97;;;4.57;;
58260;SDS011;44058;52.898;6.502;2024-02-14T02:13:32;4.97;;;4.50;;
58260;SDS011;44058;52.898;6.502;2024-02-14T02:15:59;4.88;;;4.38;;
58260;SDS011;44058;52.898;6.502;2024-02-14T02:18:30;5.50;;;4.55;;
58260;SDS011;44058;52.898;6.502;2024-02-14T02:20:57;5.20;;;4.30;;
58260;SDS011;44058;52.898;6.502;2024-02-14T02:25:53;4.78;;;4.38;;
58260;SDS011;44058;52.898;6.502;2024-02-14T02:28:20;4.47;;;3.90;;
58260;SDS011;44058;52.898;6.502;2024-02-14T02:30:48;5.80;;;4.20;;
58260;SDS011;44058;52.898;6.502;2024-02-14T02:33:15;4.78;;;4.03;;
58260;SDS011;44058;52.898;6.502;2024-02-14T02:35:42;4.95;;;3.85;;
58260;SDS011;44058;52.898;6.502;2024-02-14T02:38:11;4.28;;;3.90;;
58260;SDS011;44058;52.898;6.502;2024-02-14T02:40:38;4.22;;;3.70;;
58260;SDS011;44058;52.898;6.502;2024-02-14T02:43:05;4.63;;;3.67;;
58260;SDS011;44058;52.898;6.502;2024-02-14T02:45:32;4.03;;;3.63;;
58260;SDS011;44058;52.898;6.502;2024-02-14T02:48:00;3.90;;;3.60;;
58260;SDS011;44058;52.898;6.502;2024-02-14T02:50:28;4.40;;;3.77;;
58260;SDS011;44058;52.898;6.502;2024-02-14T02:52:56;4.10;;;3.65;;
58260;SDS011;44058;52.898;6.502;2024-02-14T02:55:23;4.03;;;3.28;;
58260;SDS011;44058;52.898;6.502;2024-02-14T02:57:50;4.15;;;3.58;;
58260;SDS011;44058;52.898;6.502;2024-02-14T03:00:18;3.80;;;3.50;;
58260;SDS011;44058;52.898;6.502;2024-02-14T03:02:47;4.03;;;3.63;;
58260;SDS011;44058;52.898;6.502;2024-02-14T03:05:14;4.20;;;3.80;;
58260;SDS011;44058;52.898;6.502;2024-02-14T03:07:44;4.00;;;3.67;;
58260;SDS011;44058;52.898;6.502;2024-02-14T03:10:14;4.60;;;4.20;;
58260;SDS011;44058;52.898;6.502;2024-02-14T03:12:49;4.53;;;4.10;;
58260;SDS011;44058;52.898;6.502;2024-02-14T03:15:17;4.90;;;3.92;;
58260;SDS011;44058;52.898;6.502;2024-02-14T03:17:44;4.57;;;4.18;;
58260;SDS011;44058;52.898;6.502;2024-02-14T03:20:12;4.40;;;4.00;;
58260;SDS011;44058;52.898;6.502;2024-02-14T03:22:42;4.43;;;4.03;;
58260;SDS011;44058;52.898;6.502;2024-02-14T03:25:13;4.78;;;4.38;;
58260;SDS011;44058;52.898;6.502;2024-02-14T03:27:42;4.30;;;3.90;;
58260;SDS011;44058;52.898;6.502;2024-02-14T03:30:13;4.78;;;4.18;;
58260;SDS011;44058;52.898;6.502;2024-02-14T03:32:43;5.30;;;4.30;;
58260;SDS011;44058;52.898;6.502;2024-02-14T03:35:10;4.65;;;4.25;;
58260;SDS011;44058;52.898;6.502;2024-02-14T03:37:40;4.95;;;4.35;;
58260;SDS011;44058;52.898;6.502;2024-02-14T03:40:08;5.00;;;4.50;;
58260;SDS011;44058;52.898;6.502;2024-02-14T03:42:35;5.25;;;4.75;;
58260;SDS011;44058;52.898;6.502;2024-02-14T03:45:06;5.25;;;4.75;;
58260;SDS011;44058;52.898;6.502;2024-02-14T03:47:33;5.03;;;4.53;;
58260;SDS011;44058;52.898;6.502;2024-02-14T03:50:00;5.25;;;4.75;;
58260;SDS011;44058;52.898;6.502;2024-02-14T03:52:30;5.32;;;4.82;;
58260;SDS011;44058;52.898;6.502;2024-02-14T03:55:00;5.63;;;5.07;;
58260;SDS011;44058;52.898;6.502;2024-02-14T03:57:28;5.20;;;4.70;;
58260;SDS011;44058;52.898;6.502;2024-02-14T03:59:55;5.43;;;4.85;;
58260;SDS011;44058;52.898;6.502;2024-02-14T04:02:22;5.38;;;4.82;;
58260;SDS011;44058;52.898;6.502;2024-02-14T04:04:49;5.47;;;4.97;;
58260;SDS011;44058;52.898;6.502;2024-02-14T04:07:16;5.40;;;4.90;;
58260;SDS011;44058;52.898;6.502;2024-02-14T04:09:44;5.63;;;5.03;;
58260;SDS011;44058;52.898;6.502;2024-02-14T04:12:11;5.57;;;5.07;;
58260;SDS011;44058;52.898;6.502;2024-02-14T04:14:38;7.10;;;5.78;;
58260;SDS011;44058;52.898;6.502;2024-02-14T04:17:05;6.75;;;5.80;;
58260;SDS011;44058;52.898;6.502;2024-02-14T04:19:37;6.72;;;5.90;;
58260;SDS011;44058;52.898;6.502;2024-02-14T04:22:04;6.43;;;5.82;;
58260;SDS011;44058;52.898;6.502;2024-02-14T04:24:33;6.93;;;5.80;;
58260;SDS011;44058;52.898;6.502;2024-02-14T04:27:00;6.65;;;5.95;;
58260;SDS011;44058;52.898;6.502;2024-02-14T04:29:29;6.97;;;6.28;;
58260;SDS011;44058;52.898;6.502;2024-02-14T04:34:25;6.32;;;5.72;;
58260;SDS011;44058;52.898;6.502;2024-02-14T04:36:53;7.72;;;6.10;;
58260;SDS011;44058;52.898;6.502;2024-02-14T04:39:20;6.97;;;6.28;;
58260;SDS011;44058;52.898;6.502;2024-02-14T04:41:47;6.80;;;5.78;;
58260;SDS011;44058;52.898;6.502;2024-02-14T04:44:16;6.53;;;5.30;;
58260;SDS011;44058;52.898;6.502;2024-02-14T04:46:43;5.65;;;5.15;;
58260;SDS011;44058;52.898;6.502;2024-02-14T04:49:10;6.47;;;5.72;;
58260;SDS011;44058;52.898;6.502;2024-02-14T04:51:37;6.07;;;5.47;;
58260;SDS011;44058;52.898;6.502;2024-02-14T04:54:04;5.82;;;5.22;;
58260;SDS011;44058;52.898;6.502;2024-02-14T04:56:31;5.88;;;5.28;;
58260;SDS011;44058;52.898;6.502;2024-02-14T04:58:58;5.55;;;5.05;;
58260;SDS011;44058;52.898;6.502;2024-02-14T05:01:25;5.80;;;5.18;;
58260;SDS011;44058;52.898;6.502;2024-02-14T05:03:52;5.97;;;5.38;;
58260;SDS011;44058;52.898;6.502;2024-02-14T05:06:19;6.38;;;5.70;;
58260;SDS011;44058;52.898;6.502;2024-02-14T05:08:47;5.75;;;5.25;;
58260;SDS011;44058;52.898;6.502;2024-02-14T05:11:14;5.78;;;5.18;;
58260;SDS011;44058;52.898;6.502;2024-02-14T05:13:41;5.88;;;5.28;;
58260;SDS011;44058;52.898;6.502;2024-02-14T05:16:08;5.88;;;5.28;;
58260;SDS011;44058;52.898;6.502;2024-02-14T05:18:37;5.93;;;5.35;;
58260;SDS011;44058;52.898;6.502;2024-02-14T05:21:05;5.13;;;4.63;;
58260;SDS011;44058;52.898;6.502;2024-02-14T05:23:32;5.03;;;4.53;;
58260;SDS011;44058;52.898;6.502;2024-02-14T05:25:59;4.75;;;4.35;;
58260;SDS011;44058;52.898;6.502;2024-02-14T05:28:28;5.68;;;5.07;;
58260;SDS011;44058;52.898;6.502;2024-02-14T05:30:56;5.18;;;4.68;;
58260;SDS011;44058;52.898;6.502;2024-02-14T05:33:23;5.07;;;4.63;;
58260;SDS011;44058;52.898;6.502;2024-02-14T05:35:50;4.80;;;4.30;;
58260;SDS011;44058;52.898;6.502;2024-02-14T05:38:17;5.30;;;4.57;;
58260;SDS011;44058;52.898;6.502;2024-02-14T05:40:47;4.35;;;3.95;;
58260;SDS011;44058;52.898;6.502;2024-02-14T05:43:15;4.43;;;4.03;;
58260;SDS011;44058;52.898;6.502;2024-02-14T05:45:43;4.60;;;4.20;;
58260;SDS011;44058;52.898;6.502;2024-02-14T05:48:10;4.78;;;4.07;;
58260;SDS011;44058;52.898;6.502;2024-02-14T05:50:37;3.92;;;3.53;;
58260;SDS011;44058;52.898;6.502;2024-02-14T05:53:05;4.05;;;3.72;;
58260;SDS011;44058;52.898;6.502;2024-02-14T05:55:32;4.68;;;3.53;;
58260;SDS011;44058;52.898;6.502;2024-02-14T05:57:59;4.90;;;4.03;;
58260;SDS011;44058;52.898;6.502;2024-02-14T06:00:26;5.20;;;4.25;;
58260;SDS011;44058;52.898;6.502;2024-02-14T06:02:53;5.00;;;4.45;;
58260;SDS011;44058;52.898;6.502;2024-02-14T06:05:20;7.18;;;5.07;;
58260;SDS011;44058;52.898;6.502;2024-02-14T06:07:47;5.30;;;4.80;;
58260;SDS011;44058;52.898;6.502;2024-02-14T06:10:14;5.93;;;5.15;;
58260;SDS011;44058;52.898;6.502;2024-02-14T06:12:41;8.20;;;6.10;;
58260;SDS011;44058;52.898;6.502;2024-02-14T06:15:09;10.70;;;5.83;;
58260;SDS011;44058;52.898;6.502;2024-02-14T06:17:36;8.60;;;5.82;;
58260;SDS011;44058;52.898;6.502;2024-02-14T06:20:03;10.02;;;6.20;;
58260;SDS011;44058;52.898;6.502;2024-02-14T06:22:33;9.68;;;5.60;;
58260;SDS011;44058;52.898;6.502;2024-02-14T06:25:00;10.15;;;6.05;;
58260;SDS011;44058;52.898;6.502;2024-02-14T06:27:31;10.55;;;6.30;;
58260;SDS011;44058;52.898;6.502;2024-02-14T06:29:58;18.30;;;7.53;;
58260;SDS011;44058;52.898;6.502;2024-02-14T06:32:25;15.38;;;7.35;;
58260;SDS011;44058;52.898;6.502;2024-02-14T06:34:52;17.70;;;7.75;;
58260;SDS011;44058;52.898;6.502;2024-02-14T06:37:19;21.75;;;8.20;;
58260;SDS011;44058;52.898;6.502;2024-02-14T06:39:46;20.95;;;8.75;;
58260;SDS011;44058;52.898;6.502;2024-02-14T06:42:15;25.95;;;8.30;;
58260;SDS011;44058;52.898;6.502;2024-02-14T06:44:42;31.65;;;10.77;;
58260;SDS011;44058;52.898;6.502;2024-02-14T06:47:08;28.20;;;9.63;;
58260;SDS011;44058;52.898;6.502;2024-02-14T06:49:35;27.00;;;8.98;;
58260;SDS011;44058;52.898;6.502;2024-02-14T06:52:03;29.02;;;8.35;;
58260;SDS011;44058;52.898;6.502;2024-02-14T06:54:30;32.53;;;8.95;;
58260;SDS011;44058;52.898;6.502;2024-02-14T06:56:57;25.00;;;9.00;;
58260;SDS011;44058;52.898;6.502;2024-02-14T06:59:24;29.80;;;8.55;;
58260;SDS011;44058;52.898;6.502;2024-02-14T07:01:52;28.77;;;8.57;;
58260;SDS011;44058;52.898;6.502;2024-02-14T07:04:21;29.55;;;8.38;;
58260;SDS011;44058;52.898;6.502;2024-02-14T07:06:52;28.13;;;7.95;;
58260;SDS011;44058;52.898;6.502;2024-02-14T07:09:19;23.13;;;8.27;;
58260;SDS011;44058;52.898;6.502;2024-02-14T07:11:46;23.75;;;7.57;;
58260;SDS011;44058;52.898;6.502;2024-02-14T07:14:13;26.25;;;7.20;;
58260;SDS011;44058;52.898;6.502;2024-02-14T07:16:40;21.35;;;7.10;;
58260;SDS011;44058;52.898;6.502;2024-02-14T07:19:07;22.90;;;6.47;;
58260;SDS011;44058;52.898;6.502;2024-02-14T07:21:34;18.05;;;6.70;;
58260;SDS011;44058;52.898;6.502;2024-02-14T07:24:04;24.73;;;7.05;;
58260;SDS011;44058;52.898;6.502;2024-02-14T07:26:31;18.20;;;6.82;;
58260;SDS011;44058;52.898;6.502;2024-02-14T07:28:58;22.65;;;7.63;;
58260;SDS011;44058;52.898;6.502;2024-02-14T07:31:28;18.02;;;6.35;;
58260;SDS011;44058;52.898;6.502;2024-02-14T07:33:56;20.10;;;6.70;;
58260;SDS011;44058;52.898;6.502;2024-02-14T07:36:23;23.35;;;6.10;;
58260;SDS011;44058;52.898;6.502;2024-02-14T07:38:50;18.13;;;6.05;;
58260;SDS011;44058;52.898;6.502;2024-02-14T07:41:17;14.48;;;5.35;;
58260;SDS011;44058;52.898;6.502;2024-02-14T07:43:44;14.07;;;4.78;;
58260;SDS011;44058;52.898;6.502;2024-02-14T07:46:11;11.80;;;4.90;;
58260;SDS011;44058;52.898;6.502;2024-02-14T07:48:38;13.75;;;5.15;;
58260;SDS011;44058;52.898;6.502;2024-02-14T07:51:09;13.73;;;4.88;;
58260;SDS011;44058;52.898;6.502;2024-02-14T07:53:36;15.27;;;5.95;;
58260;SDS011;44058;52.898;6.502;2024-02-14T07:56:03;12.07;;;4.60;;
58260;SDS011;44058;52.898;6.502;2024-02-14T07:58:30;12.07;;;5.10;;
58260;SDS011;44058;52.898;6.502;2024-02-14T08:00:57;13.60;;;5.03;;
58260;SDS011;44058;52.898;6.502;2024-02-14T08:03:24;15.25;;;5.85;;
58260;SDS011;44058;52.898;6.502;2024-02-14T08:05:51;16.58;;;6.40;;
58260;SDS011;44058;52.898;6.502;2024-02-14T08:08:18;18.73;;;7.18;;
58260;SDS011;44058;52.898;6.502;2024-02-14T08:10:46;14.57;;;6.32;;
58260;SDS011;44058;52.898;6.502;2024-02-14T08:13:13;19.85;;;6.93;;
58260;SDS011;44058;52.898;6.502;2024-02-14T08:15:42;17.90;;;6.75;;
58260;SDS011;44058;52.898;6.502;2024-02-14T08:18:09;16.85;;;7.82;;
58260;SDS011;44058;52.898;6.502;2024-02-14T08:20:36;14.07;;;8.38;;
58260;SDS011;44058;52.898;6.502;2024-02-14T08:23:03;23.80;;;8.23;;
58260;SDS011;44058;52.898;6.502;2024-02-14T08:25:30;19.45;;;8.30;;
58260;SDS011;44058;52.898;6.502;2024-02-14T08:27:57;20.17;;;8.45;;
58260;SDS011;44058;52.898;6.502;2024-02-14T08:30:24;22.48;;;8.43;;
58260;SDS011;44058;52.898;6.502;2024-02-14T08:32:51;17.58;;;7.65;;
58260;SDS011;44058;52.898;6.502;2024-02-14T08:35:18;20.65;;;8.25;;
58260;SDS011;44058;52.898;6.502;2024-02-14T08:37:45;17.10;;;7.93;;
58260;SDS011;44058;52.898;6.502;2024-02-14T08:40:12;20.63;;;8.50;;
58260;SDS011;44058;52.898;6.502;2024-02-14T08:42:39;24.38;;;9.00;;
58260;SDS011;44058;52.898;6.502;2024-02-14T08:45:06;18.83;;;8.65;;
58260;SDS011;44058;52.898;6.502;2024-02-14T08:47:33;19.20;;;9.48;;
58260;SDS011;44058;52.898;6.502;2024-02-14T08:50:00;21.17;;;9.73;;
58260;SDS011;44058;52.898;6.502;2024-02-14T08:52:27;22.02;;;10.00;;
58260;SDS011;44058;52.898;6.502;2024-02-14T08:54:54;24.58;;;10.40;;
58260;SDS011;44058;52.898;6.502;2024-02-14T08:57:21;22.60;;;11.73;;
58260;SDS011;44058;52.898;6.502;2024-02-14T08:59:49;21.42;;;11.85;;
58260;SDS011;44058;52.898;6.502;2024-02-14T09:02:16;22.98;;;12.73;;
58260;SDS011;44058;52.898;6.502;2024-02-14T09:04:43;24.85;;;13.65;;
58260;SDS011;44058;52.898;6.502;2024-02-14T09:07:10;24.25;;;13.60;;
58260;SDS011;44058;52.898;6.502;2024-02-14T09:09:37;26.83;;;15.25;;
58260;SDS011;44058;52.898;6.502;2024-02-14T09:12:04;25.95;;;14.13;;
58260;SDS011;44058;52.898;6.502;2024-02-14T09:14:31;27.67;;;15.05;;
58260;SDS011;44058;52.898;6.502;2024-02-14T09:16:58;25.98;;;15.82;;
58260;SDS011;44058;52.898;6.502;2024-02-14T09:19:25;27.88;;;15.15;;
58260;SDS011;44058;52.898;6.502;2024-02-14T09:21:53;26.23;;;16.08;;
58260;SDS011;44058;52.898;6.502;2024-02-14T09:24:20;28.67;;;16.17;;
58260;SDS011;44058;52.898;6.502;2024-02-14T09:26:47;27.02;;;16.75;;
58260;SDS011;44058;52.898;6.502;2024-02-14T09:29:14;30.95;;;17.73;;
58260;SDS011;44058;52.898;6.502;2024-02-14T09:31:41;29.13;;;17.60;;
58260;SDS011;44058;52.898;6.502;2024-02-14T09:34:08;33.28;;;19.52;;
58260;SDS011;44058;52.898;6.502;2024-02-14T09:36:36;32.37;;;18.87;;
58260;SDS011;44058;52.898;6.502;2024-02-14T09:39:03;34.63;;;20.15;;
58260;SDS011;44058;52.898;6.502;2024-02-14T09:41:36;34.55;;;19.92;;
58260;SDS011;44058;52.898;6.502;2024-02-14T09:44:06;30.63;;;18.83;;
58260;SDS011;44058;52.898;6.502;2024-02-14T09:46:34;27.85;;;17.77;;
58260;SDS011;44058;52.898;6.502;2024-02-14T09:49:03;26.23;;;17.52;;
58260;SDS011;44058;52.898;6.502;2024-02-14T09:51:30;28.27;;;18.20;;
58260;SDS011;44058;52.898;6.502;2024-02-14T09:53:59;28.20;;;17.83;;
58260;SDS011;44058;52.898;6.502;2024-02-14T09:56:27;22.15;;;16.33;;
58260;SDS011;44058;52.898;6.502;2024-02-14T09:58:54;23.75;;;15.48;;
58260;SDS011;44058;52.898;6.502;2024-02-14T10:01:22;21.58;;;15.60;;
58260;SDS011;44058;52.898;6.502;2024-02-14T10:03:50;19.77;;;14.30;;
58260;SDS011;44058;52.898;6.502;2024-02-14T10:06:17;20.70;;;14.98;;
58260;SDS011;44058;52.898;6.502;2024-02-14T10:08:48;22.08;;;14.73;;
58260;SDS011;44058;52.898;6.502;2024-02-14T10:11:16;21.35;;;14.45;;
58260;SDS011;44058;52.898;6.502;2024-02-14T10:13:44;21.70;;;14.43;;
58260;SDS011;44058;52.898;6.502;2024-02-14T10:16:16;23.92;;;16.10;;
58260;SDS011;44058;52.898;6.502;2024-02-14T10:18:45;21.13;;;15.55;;
58260;SDS011;44058;52.898;6.502;2024-02-14T10:21:15;23.03;;;16.13;;
58260;SDS011;44058;52.898;6.502;2024-02-14T10:23:44;22.83;;;16.10;;
58260;SDS011;44058;52.898;6.502;2024-02-14T10:26:16;26.55;;;16.63;;
58260;SDS011;44058;52.898;6.502;2024-02-14T10:28:43;23.83;;;15.45;;
58260;SDS011;44058;52.898;6.502;2024-02-14T10:31:26;24.13;;;15.75;;
58260;SDS011;44058;52.898;6.502;2024-02-14T10:33:54;23.80;;;16.63;;
58260;SDS011;44058;52.898;6.502;2024-02-14T10:36:22;28.13;;;16.63;;
58260;SDS011;44058;52.898;6.502;2024-02-14T10:38:50;20.70;;;15.18;;
58260;SDS011;44058;52.898;6.502;2024-02-14T10:41:17;21.08;;;15.02;;
58260;SDS011;44058;52.898;6.502;2024-02-14T10:43:44;21.73;;;14.80;;
58260;SDS011;44058;52.898;6.502;2024-02-14T10:46:12;19.40;;;13.95;;
58260;SDS011;44058;52.898;6.502;2024-02-14T10:48:42;18.77;;;13.63;;
58260;SDS011;44058;52.898;6.502;2024-02-14T10:51:08;18.45;;;13.60;;
58260;SDS011;44058;52.898;6.502;2024-02-14T10:53:39;19.05;;;13.15;;
58260;SDS011;44058;52.898;6.502;2024-02-14T10:56:12;17.85;;;12.57;;
58260;SDS011;44058;52.898;6.502;2024-02-14T10:58:45;17.40;;;12.68;;
58260;SDS011;44058;52.898;6.502;2024-02-14T11:01:13;20.85;;;13.93;;
58260;SDS011;44058;52.898;6.502;2024-02-14T11:03:45;25.60;;;15.85;;
58260;SDS011;44058;52.898;6.502;2024-02-14T11:06:16;26.23;;;17.25;;
58260;SDS011;44058;52.898;6.502;2024-02-14T11:09:04;23.95;;;16.33;;
58260;SDS011;44058;52.898;6.502;2024-02-14T11:11:36;25.63;;;16.92;;
58260;SDS011;44058;52.898;6.502;2024-02-14T11:14:03;26.45;;;17.83;;
58260;SDS011;44058;52.898;6.502;2024-02-14T11:16:30;23.00;;;16.02;;
58260;SDS011;44058;52.898;6.502;2024-02-14T11:21:27;22.95;;;16.13;;
58260;SDS011;44058;52.898;6.502;2024-02-14T11:23:55;21.88;;;16.30;;
58260;SDS011;44058;52.898;6.502;2024-02-14T11:26:25;21.80;;;16.27;;
58260;SDS011;44058;52.898;6.502;2024-02-14T11:29:00;20.88;;;16.35;;
58260;SDS011;44058;52.898;6.502;2024-02-14T11:31:33;21.60;;;15.88;;
58260;SDS011;44058;52.898;6.502;2024-02-14T11:34:04;23.58;;;15.82;;
58260;SDS011;44058;52.898;6.502;2024-02-14T11:36:32;21.33;;;16.40;;
58260;SDS011;44058;52.898;6.502;2024-02-14T11:39:02;21.45;;;16.55;;
58260;SDS011;44058;52.898;6.502;2024-02-14T11:41:29;20.05;;;15.63;;
58260;SDS011;44058;52.898;6.502;2024-02-14T11:43:56;19.52;;;14.68;;
58260;SDS011;44058;52.898;6.502;2024-02-14T11:46:32;21.02;;;14.98;;
58260;SDS011;44058;52.898;6.502;2024-02-14T11:49:00;16.15;;;13.93;;
58260;SDS011;44058;52.898;6.502;2024-02-14T11:51:28;16.67;;;13.05;;
58260;SDS011;44058;52.898;6.502;2024-02-14T11:53:55;17.52;;;13.50;;
58260;SDS011;44058;52.898;6.502;2024-02-14T11:56:22;15.07;;;12.60;;
58260;SDS011;44058;52.898;6.502;2024-02-14T11:58:51;13.30;;;11.23;;
58260;SDS011;44058;52.898;6.502;2024-02-14T12:01:18;14.15;;;11.52;;
58260;SDS011;44058;52.898;6.502;2024-02-14T12:03:45;12.95;;;11.52;;
58260;SDS011;44058;52.898;6.502;2024-02-14T12:06:12;14.02;;;11.10;;
58260;SDS011;44058;52.898;6.502;2024-02-14T12:08:41;14.10;;;10.98;;
58260;SDS011;44058;52.898;6.502;2024-02-14T12:11:08;12.30;;;11.02;;
58260;SDS011;44058;52.898;6.502;2024-02-14T12:13:35;12.55;;;10.40;;
58260;SDS011;44058;52.898;6.502;2024-02-14T12:16:04;11.70;;;10.52;;
58260;SDS011;44058;52.898;6.502;2024-02-14T12:18:33;11.65;;;10.23;;
58260;SDS011;44058;52.898;6.502;2024-02-14T12:21:04;12.38;;;10.05;;
58260;SDS011;44058;52.898;6.502;2024-02-14T12:23:33;10.65;;;9.50;;
58260;SDS011;44058;52.898;6.502;2024-02-14T12:26:01;10.15;;;9.15;;
58260;SDS011;44058;52.898;6.502;2024-02-14T12:28:29;10.98;;;9.88;;
58260;SDS011;44058;52.898;6.502;2024-02-14T12:30:57;11.75;;;10.52;;
58260;SDS011;44058;52.898;6.502;2024-02-14T12:33:25;11.50;;;10.30;;
58260;SDS011;44058;52.898;6.502;2024-02-14T12:35:55;11.30;;;10.27;;
58260;SDS011;44058;52.898;6.502;2024-02-14T12:38:23;12.20;;;10.65;;
58260;SDS011;44058;52.898;6.502;2024-02-14T12:40:50;11.02;;;9.55;;
58260;SDS011;44058;52.898;6.502;2024-02-14T12:43:20;11.68;;;10.02;;
58260;SDS011;44058;52.898;6.502;2024-02-14T12:45:47;11.30;;;10.10;;
58260;SDS011;44058;52.898;6.502;2024-02-14T12:48:21;11.13;;;10.02;;
58260;SDS011;44058;52.898;6.502;2024-02-14T12:50:48;12.05;;;10.32;;
58260;SDS011;44058;52.898;6.502;2024-02-14T12:53:16;13.00;;;11.40;;
58260;SDS011;44058;52.898;6.502;2024-02-14T12:55:42;13.65;;;11.07;;
58260;SDS011;44058;52.898;6.502;2024-02-14T12:58:10;14.35;;;11.95;;
58260;SDS011;44058;52.898;6.502;2024-02-14T13:00:36;14.27;;;12.18;;
58260;SDS011;44058;52.898;6.502;2024-02-14T13:03:04;16.20;;;13.32;;
58260;SDS011;44058;52.898;6.502;2024-02-14T13:05:31;16.27;;;13.07;;
58260;SDS011;44058;52.898;6.502;2024-02-14T13:07:58;16.60;;;13.02;;
58260;SDS011;44058;52.898;6.502;2024-02-14T13:10:25;16.52;;;13.38;;
58260;SDS011;44058;52.898;6.502;2024-02-14T13:12:52;18.20;;;12.98;;
58260;SDS011;44058;52.898;6.502;2024-02-14T13:15:20;16.08;;;12.77;;
58260;SDS011;44058;52.898;6.502;2024-02-14T13:17:46;17.20;;;13.20;;
58260;SDS011;44058;52.898;6.502;2024-02-14T13:20:14;15.65;;;12.85;;
58260;SDS011;44058;52.898;6.502;2024-02-14T13:22:44;14.77;;;13.18;;
58260;SDS011;44058;52.898;6.502;2024-02-14T13:25:12;14.38;;;12.43;;
58260;SDS011;44058;52.898;6.502;2024-02-14T13:27:40;16.92;;;12.48;;
58260;SDS011;44058;52.898;6.502;2024-02-14T13:30:07;14.18;;;12.25;;
58260;SDS011;44058;52.898;6.502;2024-02-14T13:32:34;13.00;;;11.32;;
58260;SDS011;44058;52.898;6.502;2024-02-14T13:35:01;12.30;;;10.95;;
58260;SDS011;44058;52.898;6.502;2024-02-14T13:37:28;13.30;;;10.32;;
58260;SDS011;44058;52.898;6.502;2024-02-14T13:39:57;13.48;;;10.52;;
58260;SDS011;44058;52.898;6.502;2024-02-14T13:42:24;10.73;;;9.50;;
58260;SDS011;44058;52.898;6.502;2024-02-14T13:44:51;9.80;;;8.02;;
58260;SDS011;44058;52.898;6.502;2024-02-14T13:47:20;12.27;;;9.55;;
58260;SDS011;44058;52.898;6.502;2024-02-14T13:49:47;9.52;;;7.93;;
58260;SDS011;44058;52.898;6.502;2024-02-14T13:52:14;9.10;;;7.80;;
58260;SDS011;44058;52.898;6.502;2024-02-14T13:57:10;8.68;;;7.78;;
58260;SDS011;44058;52.898;6.502;2024-02-14T13:59:37;8.00;;;6.82;;
58260;SDS011;44058;52.898;6.502;2024-02-14T14:02:04;7.80;;;6.70;;
58260;SDS011;44058;52.898;6.502;2024-02-14T14:04:31;7.57;;;6.57;;
58260;SDS011;44058;52.898;6.502;2024-02-14T14:09:30;6.88;;;6.18;;
58260;SDS011;44058;52.898;6.502;2024-02-14T14:11:58;7.07;;;6.00;;
58260;SDS011;44058;52.898;6.502;2024-02-14T14:14:25;5.95;;;5.25;;
58260;SDS011;44058;52.898;6.502;2024-02-14T14:16:53;5.90;;;5.30;;
58260;SDS011;44058;52.898;6.502;2024-02-14T14:19:19;6.18;;;5.45;;
58260;SDS011;44058;52.898;6.502;2024-02-14T14:21:46;6.60;;;5.65;;
58260;SDS011;44058;52.898;6.502;2024-02-14T14:24:14;5.45;;;4.90;;
58260;SDS011;44058;52.898;6.502;2024-02-14T14:26:41;5.63;;;5.00;;
58260;SDS011;44058;52.898;6.502;2024-02-14T14:29:09;5.68;;;4.78;;
58260;SDS011;44058;52.898;6.502;2024-02-14T14:31:36;5.38;;;4.55;;
58260;SDS011;44058;52.898;6.502;2024-02-14T14:34:03;5.75;;;4.80;;
58260;SDS011;44058;52.898;6.502;2024-02-14T14:36:30;5.50;;;4.90;;
58260;SDS011;44058;52.898;6.502;2024-02-14T14:38:57;5.00;;;4.50;;
58260;SDS011;44058;52.898;6.502;2024-02-14T14:41:24;5.07;;;4.57;;
58260;SDS011;44058;52.898;6.502;2024-02-14T14:43:51;4.53;;;4.13;;
58260;SDS011;44058;52.898;6.502;2024-02-14T14:46:18;4.68;;;4.28;;
58260;SDS011;44058;52.898;6.502;2024-02-14T14:48:45;5.75;;;4.57;;
58260;SDS011;44058;52.898;6.502;2024-02-14T14:51:12;5.55;;;5.00;;
58260;SDS011;44058;52.898;6.502;2024-02-14T14:53:39;5.63;;;4.65;;